Time;durP1;ratioP1;P1;durP2;ratioP2;P2;SDS_P1;SDS_P2;PMS_P1;PMS_P2;Temp;Humidity;BMP_temperature;BMP_pressure;BME280_temperature;BME280_humidity;BME280_pressure;Samples;Min_cycle;Max_cycle;Signal;HPM_P1;HPM_P2
2021/11/30 00:01:07;;;;;;;24.50;11.10;;;;;;;-0.62;83.72;97372.22;5093064;28;20020;-71
2021/11/30 00:03:34;;;;;;;21.20;10.18;;;;;;;-0.63;83.87;97375.13;5075053;28;20027;-72
2021/11/30 00:05:59;;;;;;;25.77;12.45;;;;;;;-0.64;84.28;97376.19;5074583;28;20376;-73
2021/11/30 00:08:28;;;;;;;24.63;12.85;;;;;;;-0.63;84.19;97384.03;5094287;28;20028;-72
2021/11/30 00:10:54;;;;;;;28.98;13.63;;;;;;;-0.64;84.11;97385.09;5093867;28;20039;-70
2021/11/30 00:13:21;;;;;;;24.42;11.70;;;;;;;-0.65;83.90;97383.47;5091125;28;20020;-70
2021/11/30 00:15:48;;;;;;;22.05;10.85;;;;;;;-0.64;83.77;97385.09;5091877;28;20032;-71
2021/11/30 00:18:14;;;;;;;27.88;13.95;;;;;;;-0.64;83.75;97390.50;5087563;28;20023;-69
2021/11/30 00:20:41;;;;;;;30.52;16.38;;;;;;;-0.65;84.58;97401.50;5085280;28;20065;-70
2021/11/30 00:23:08;;;;;;;32.08;16.85;;;;;;;-0.63;84.37;97394.81;5083601;28;20016;-70
2021/11/30 00:25:34;;;;;;;28.35;14.13;;;;;;;-0.62;84.83;97407.22;5085154;28;20363;-70
2021/11/30 00:28:00;;;;;;;27.20;12.30;;;;;;;-0.62;84.45;97404.53;5085202;28;20024;-71
2021/11/30 00:30:26;;;;;;;38.70;19.70;;;;;;;-0.60;84.45;97415.03;5083251;28;20078;-70
2021/11/30 00:32:52;;;;;;;24.98;12.50;;;;;;;-0.59;84.56;97405.91;5083088;28;20041;-70
2021/11/30 00:35:18;;;;;;;26.27;13.30;;;;;;;-0.60;84.90;97417.72;5085047;28;20028;-70
2021/11/30 00:37:44;;;;;;;28.33;14.60;;;;;;;-0.57;85.22;97416.41;5085157;28;20024;-70
2021/11/30 00:40:10;;;;;;;25.98;13.88;;;;;;;-0.57;84.71;97411.84;5085404;28;20105;-70
2021/11/30 00:42:36;;;;;;;37.33;18.38;;;;;;;-0.54;84.78;97414.03;5083884;28;20054;-70
2021/11/30 00:45:05;;;;;;;30.75;14.10;;;;;;;-0.54;84.85;97418.59;5085357;28;20085;-70
2021/11/30 00:47:31;;;;;;;23.02;11.38;;;;;;;-0.54;84.69;97422.13;5083881;28;20032;-70
2021/11/30 00:49:58;;;;;;;22.20;12.13;;;;;;;-0.53;84.41;97428.31;5084542;28;20036;-70
2021/11/30 00:52:24;;;;;;;26.77;13.57;;;;;;;-0.53;84.52;97429.13;5084108;28;20032;-70
2021/11/30 00:54:50;;;;;;;21.90;11.13;;;;;;;-0.52;84.74;97433.47;5083777;28;20460;-70
2021/11/30 00:57:17;;;;;;;24.80;11.77;;;;;;;-0.53;84.92;97434.53;5083090;28;20040;-70
2021/11/30 00:59:43;;;;;;;21.70;11.25;;;;;;;-0.53;84.76;97441.78;5084344;28;20392;-70
2021/11/30 01:02:08;;;;;;;20.42;11.90;;;;;;;-0.51;84.67;97431.56;5084623;28;20090;-70
2021/11/30 01:04:34;;;;;;;18.80;9.20;;;;;;;-0.48;85.01;97437.28;5084147;28;20036;-70
2021/11/30 01:06:59;;;;;;;15.70;8.40;;;;;;;-0.50;84.36;97438.59;5083021;28;20039;-70
2021/11/30 01:09:26;;;;;;;17.50;8.90;;;;;;;-0.48;84.82;97449.94;5084423;28;20032;-70
2021/11/30 01:11:52;;;;;;;16.95;10.07;;;;;;;-0.48;84.63;97434.59;5085337;28;20055;-70
2021/11/30 01:14:18;;;;;;;16.45;8.55;;;;;;;-0.43;84.56;97444.59;5081605;28;20388;-70
2021/11/30 01:16:44;;;;;;;18.30;11.38;;;;;;;-0.44;84.40;97434.91;5064525;28;20028;-70
2021/11/30 01:19:10;;;;;;;15.80;8.50;;;;;;;-0.40;85.00;97441.41;5082326;28;20024;-70
2021/11/30 01:21:37;;;;;;;13.63;7.22;;;;;;;-0.34;84.31;97440.44;5083799;28;20035;-70
2021/11/30 01:24:04;;;;;;;13.45;7.03;;;;;;;-0.33;84.53;97443.91;5065622;28;20032;-70
2021/11/30 01:26:29;;;;;;;13.68;7.35;;;;;;;-0.34;85.01;97451.19;5084074;28;20032;-70
2021/11/30 01:28:55;;;;;;;15.43;8.10;;;;;;;-0.37;83.93;97446.31;5084080;28;20055;-69
2021/11/30 01:31:21;;;;;;;15.90;8.07;;;;;;;-0.35;84.57;97452.25;5060260;28;20138;-70
2021/11/30 01:33:46;;;;;;;14.05;7.80;;;;;;;-0.33;84.54;97450.13;5048695;28;20052;-70
2021/11/30 01:36:12;;;;;;;14.30;7.57;;;;;;;-0.32;84.34;97454.47;5051745;28;20644;-70
2021/11/30 01:38:37;;;;;;;14.25;7.20;;;;;;;-0.31;84.29;97456.09;5053330;28;20423;-70
2021/11/30 01:41:04;;;;;;;18.23;10.43;;;;;;;-0.26;84.59;97457.22;5050969;28;20043;-70
2021/11/30 01:43:38;;;;;;;14.65;7.40;;;;;;;-0.24;84.08;97455.91;5050067;28;20036;-70
2021/11/30 01:46:12;;;;;;;18.67;9.63;;;;;;;-0.24;84.46;97466.69;5051282;28;20495;-70
2021/11/30 01:51:25;;;;;;;15.48;7.88;;;;;;;-0.21;83.89;97470.75;5050158;28;20115;-70
2021/11/30 01:53:52;;;;;;;16.88;9.30;;;;;;;-0.23;84.06;97483.66;5049741;28;20044;-70
2021/11/30 01:56:18;;;;;;;17.02;9.38;;;;;;;-0.22;84.17;97480.72;5047135;28;20531;-71
2021/11/30 01:58:45;;;;;;;16.48;9.27;;;;;;;-0.20;83.79;97477.75;5049326;28;20025;-70
2021/11/30 02:01:11;;;;;;;14.13;7.78;;;;;;;-0.18;84.10;97481.00;5050255;28;20641;-70
2021/11/30 02:03:37;;;;;;;12.20;6.93;;;;;;;-0.17;84.38;97480.78;5050112;28;20029;-70
2021/11/30 02:06:02;;;;;;;12.40;7.70;;;;;;;-0.17;84.16;97482.66;5053376;28;20039;-70
2021/11/30 02:08:28;;;;;;;15.15;8.25;;;;;;;-0.15;83.65;97477.81;5051065;28;20032;-71
2021/11/30 02:10:56;;;;;;;13.80;7.53;;;;;;;-0.18;83.67;97483.72;5049840;28;20024;-71
2021/11/30 02:13:23;;;;;;;15.40;8.75;;;;;;;-0.20;84.11;97481.28;5047109;28;20025;-70
2021/11/30 02:15:51;;;;;;;13.88;7.97;;;;;;;-0.24;83.78;97484.75;5051660;28;20165;-70
2021/11/30 02:18:23;;;;;;;12.60;7.40;;;;;;;-0.26;84.01;97476.88;5052117;28;20024;-70
2021/11/30 02:20:55;;;;;;;12.68;7.10;;;;;;;-0.24;84.20;97482.03;5049798;28;20081;-70
2021/11/30 02:25:56;;;;;;;13.13;7.22;;;;;;;-0.24;83.97;97488.22;5048772;28;20048;-70
2021/11/30 02:28:22;;;;;;;14.07;7.82;;;;;;;-0.25;84.04;97494.69;5049228;28;20036;-70
2021/11/30 02:30:47;;;;;;;15.43;8.90;;;;;;;-0.26;84.12;97489.56;5050054;28;20400;-70
2021/11/30 02:33:13;;;;;;;12.25;7.95;;;;;;;-0.21;84.03;97495.03;5081774;28;20032;-70
2021/11/30 02:35:38;;;;;;;13.90;8.50;;;;;;;-0.21;84.51;97501.22;5083408;28;20031;-70
2021/11/30 02:38:08;;;;;;;12.93;7.88;;;;;;;-0.20;83.96;97497.44;5083123;28;20085;-69
2021/11/30 02:40:34;;;;;;;13.48;8.45;;;;;;;-0.21;84.02;97498.50;5082750;28;20092;-70
2021/11/30 02:43:00;;;;;;;14.80;7.72;;;;;;;-0.21;84.25;97492.31;5082265;28;20028;-70
2021/11/30 02:45:26;;;;;;;14.48;8.82;;;;;;;-0.25;84.03;97492.00;5083030;28;20047;-70
2021/11/30 02:47:51;;;;;;;13.57;7.90;;;;;;;-0.22;84.46;97490.69;5082287;28;20035;-70
2021/11/30 02:50:17;;;;;;;15.57;8.48;;;;;;;-0.21;84.24;97486.94;5082745;28;20028;-70
2021/11/30 02:52:42;;;;;;;13.68;7.70;;;;;;;-0.18;84.08;97489.09;5082189;28;20028;-69
2021/11/30 02:55:08;;;;;;;11.73;7.13;;;;;;;-0.18;84.33;97489.09;5083991;28;20028;-70
2021/11/30 02:57:33;;;;;;;12.27;7.55;;;;;;;-0.22;83.85;97490.69;5087498;28;20157;-70
2021/11/30 02:59:59;;;;;;;12.60;7.70;;;;;;;-0.23;83.99;97489.84;5087095;28;20105;-70
2021/11/30 03:02:28;;;;;;;10.40;6.88;;;;;;;-0.23;83.85;97492.56;5086660;28;20044;-70
2021/11/30 03:04:57;;;;;;;10.93;6.25;;;;;;;-0.21;84.30;97497.72;5086089;28;20462;-70
2021/11/30 03:07:25;;;;;;;13.35;8.07;;;;;;;-0.20;84.14;97493.94;5086916;28;20044;-70
2021/11/30 03:09:52;;;;;;;10.82;6.70;;;;;;;-0.20;83.82;97491.22;5086995;28;20028;-71
2021/11/30 03:12:21;;;;;;;12.13;7.38;;;;;;;-0.20;84.16;97499.31;5086811;28;20020;-70
2021/11/30 03:14:46;;;;;;;10.60;6.65;;;;;;;-0.22;84.17;97494.19;5083961;28;20108;-70
2021/11/30 03:17:12;;;;;;;13.10;7.35;;;;;;;-0.24;84.33;97484.75;5086999;28;20468;-70
2021/11/30 03:19:38;;;;;;;11.02;6.28;;;;;;;-0.26;84.11;97487.66;5068779;28;20769;-70
2021/11/30 03:22:04;;;;;;;11.65;6.68;;;;;;;-0.21;84.55;97497.72;5084693;28;20062;-70
2021/11/30 03:24:30;;;;;;;13.10;8.20;;;;;;;-0.23;84.00;97495.25;5085945;28;21421;-70
2021/11/30 03:26:55;;;;;;;11.68;7.57;;;;;;;-0.24;84.15;97492.81;5086732;28;20048;-70
2021/11/30 03:29:21;;;;;;;11.75;6.95;;;;;;;-0.23;84.56;97503.34;5085784;28;20514;-70
2021/11/30 03:31:51;;;;;;;12.30;8.20;;;;;;;-0.23;84.38;97510.63;5086071;28;20143;-70
2021/11/30 03:34:20;;;;;;;11.95;7.25;;;;;;;-0.21;84.10;97501.22;5085377;28;20024;-69
2021/11/30 03:36:52;;;;;;;12.65;7.45;;;;;;;-0.22;84.57;97506.88;5084773;28;20028;-70
2021/11/30 03:39:21;;;;;;;13.13;8.45;;;;;;;-0.22;84.42;97498.78;5086335;28;20024;-70
2021/11/30 03:41:50;;;;;;;11.38;7.60;;;;;;;-0.21;84.35;97503.09;5086420;28;20055;-70
2021/11/30 03:44:16;;;;;;;9.63;6.35;;;;;;;-0.17;84.43;97507.72;5085783;28;20476;-70
2021/11/30 03:46:42;;;;;;;12.43;6.55;;;;;;;-0.17;84.03;97505.03;5068370;28;20555;-70
2021/11/30 03:49:10;;;;;;;13.13;7.63;;;;;;;-0.20;84.08;97510.94;5085796;28;20107;-69
2021/11/30 03:51:36;;;;;;;14.23;8.25;;;;;;;-0.23;84.40;97518.69;5086785;28;20028;-69
2021/11/30 03:54:03;;;;;;;15.30;9.50;;;;;;;-0.22;83.95;97512.25;5087200;28;20769;-70
2021/11/30 03:56:28;;;;;;;14.75;7.63;;;;;;;-0.22;84.34;97517.66;5068104;28;20078;-70
2021/11/30 03:58:54;;;;;;;16.98;9.52;;;;;;;-0.22;84.26;97523.03;5085701;28;20036;-70
2021/11/30 04:01:20;;;;;;;12.98;7.88;;;;;;;-0.23;84.64;97522.19;5086193;28;20487;-70
2021/11/30 04:03:46;;;;;;;23.25;14.43;;;;;;;-0.20;84.05;97518.19;5085142;28;20073;-70
2021/11/30 04:06:11;;;;;;;23.92;14.00;;;;;;;-0.19;84.40;97519.81;5086847;28;20028;-70
2021/11/30 04:08:40;;;;;;;20.27;12.98;;;;;;;-0.21;84.14;97519.28;5084210;28;20064;-70
2021/11/30 04:11:06;;;;;;;18.02;11.40;;;;;;;-0.20;84.41;97524.41;5085754;28;20043;-69
2021/11/30 04:13:33;;;;;;;18.98;10.48;;;;;;;-0.17;84.41;97518.50;5085403;28;20765;-70
2021/11/30 04:15:58;;;;;;;18.98;10.32;;;;;;;-0.17;84.31;97520.38;5084990;28;20056;-70
2021/11/30 04:18:27;;;;;;;17.48;9.82;;;;;;;-0.16;83.87;97519.31;5086289;28;20067;-69
2021/11/30 04:20:53;;;;;;;17.50;10.57;;;;;;;-0.18;84.36;97516.88;5087576;28;20028;-69
2021/11/30 04:23:18;;;;;;;17.83;9.70;;;;;;;-0.19;84.28;97520.63;5084390;28;20089;-71
2021/11/30 04:25:44;;;;;;;17.77;10.30;;;;;;;-0.22;84.44;97520.34;5087165;28;20414;-70
2021/11/30 04:28:10;;;;;;;17.40;10.05;;;;;;;-0.22;83.83;97521.13;5085888;28;20546;-70
2021/11/30 04:30:35;;;;;;;15.95;10.25;;;;;;;-0.22;84.30;97512.25;5085534;28;20028;-70
2021/11/30 04:33:01;;;;;;;13.98;8.80;;;;;;;-0.18;83.91;97510.66;5084515;28;20101;-70
2021/11/30 04:35:27;;;;;;;16.42;9.95;;;;;;;-0.19;84.15;97512.56;5084960;28;20042;-70
2021/11/30 04:37:53;;;;;;;13.20;9.00;;;;;;;-0.17;84.39;97509.59;5085132;28;20282;-70
2021/11/30 04:40:18;;;;;;;13.32;8.70;;;;;;;-0.17;84.33;97512.28;5084967;28;20024;-70
2021/11/30 04:42:46;;;;;;;15.20;9.35;;;;;;;-0.16;83.84;97509.38;5085375;28;20020;-70
2021/11/30 04:45:45;;;;;;;13.32;8.77;;;;;;;-0.16;84.04;97508.53;5084661;28;20032;-70
2021/11/30 04:48:01;;;;;;;11.90;7.60;;;;;;;-0.19;84.11;97500.94;5083864;28;20040;-70
2021/11/30 04:50:30;;;;;;;15.30;8.88;;;;;;;-0.25;83.78;97494.69;5084620;28;20078;-69
2021/11/30 04:52:57;;;;;;;12.02;7.25;;;;;;;-0.29;83.93;97500.84;5065802;28;20097;-70
2021/11/30 04:55:28;;;;;;;14.68;8.27;;;;;;;-0.32;84.05;97497.56;5085161;28;20140;-70
2021/11/30 04:57:57;;;;;;;14.25;8.77;;;;;;;-0.37;83.42;97499.38;5085214;28;20040;-70
2021/11/30 05:00:23;;;;;;;14.05;8.20;;;;;;;-0.42;84.00;97493.94;5065977;28;20031;-70
2021/11/30 05:02:49;;;;;;;15.80;8.75;;;;;;;-0.47;83.90;97500.88;5083589;28;20020;-70
2021/11/30 05:05:15;;;;;;;14.85;8.30;;;;;;;-0.45;83.71;97500.63;5084627;28;20032;-69
2021/11/30 05:07:43;;;;;;;12.63;7.20;;;;;;;-0.47;83.91;97500.88;5086279;28;20043;-70
2021/11/30 05:10:10;;;;;;;15.80;8.63;;;;;;;-0.47;84.04;97502.75;5084968;28;20042;-69
2021/11/30 05:12:37;;;;;;;15.50;8.68;;;;;;;-0.47;83.84;97491.97;5084146;28;20020;-70
2021/11/30 05:15:03;;;;;;;15.07;9.80;;;;;;;-0.46;83.97;97497.13;5084336;28;20071;-70
2021/11/30 05:17:29;;;;;;;16.45;9.48;;;;;;;-0.45;84.25;97487.16;5084779;28;20028;-70
2021/11/30 05:19:54;;;;;;;16.27;9.50;;;;;;;-0.44;84.12;97493.38;5084438;28;20616;-70
2021/11/30 05:22:20;;;;;;;17.08;9.32;;;;;;;-0.44;83.99;97485.28;5065504;28;20028;-71
2021/11/30 05:24:46;;;;;;;17.13;9.95;;;;;;;-0.47;84.09;97492.78;5049545;28;20024;-69
2021/11/30 05:27:11;;;;;;;18.70;10.25;;;;;;;-0.49;84.08;97486.84;5084667;28;20527;-70
2021/11/30 05:29:36;;;;;;;16.83;9.05;;;;;;;-0.49;84.33;97494.09;5084329;28;20088;-70
2021/11/30 05:32:02;;;;;;;18.75;8.80;;;;;;;-0.48;84.48;97501.09;5084001;28;20571;-70
2021/11/30 05:34:28;;;;;;;18.17;9.60;;;;;;;-0.47;84.02;97491.97;5064480;28;20084;-70
2021/11/30 05:36:53;;;;;;;21.63;10.98;;;;;;;-0.44;84.45;97507.63;5083987;28;20024;-70
2021/11/30 05:39:18;;;;;;;21.35;11.18;;;;;;;-0.41;84.33;97500.94;5083793;28;20046;-70
2021/11/30 05:41:44;;;;;;;24.45;11.88;;;;;;;-0.39;84.13;97491.53;5083454;28;20060;-69
2021/11/30 05:44:09;;;;;;;18.27;8.82;;;;;;;-0.38;84.15;97482.41;5064133;28;20053;-69
2021/11/30 05:46:36;;;;;;;19.65;9.73;;;;;;;-0.36;84.49;97488.34;5083282;28;21143;-71
2021/11/30 05:49:04;;;;;;;20.70;9.98;;;;;;;-0.33;84.40;97485.16;5084413;28;20067;-73
2021/11/30 05:51:29;;;;;;;19.42;10.00;;;;;;;-0.32;84.27;97481.41;5067183;28;21394;-73
2021/11/30 05:53:55;;;;;;;19.55;9.98;;;;;;;-0.30;84.02;97475.75;5084980;28;20035;-73
2021/11/30 05:56:21;;;;;;;19.23;10.25;;;;;;;-0.28;84.35;97470.94;5065461;28;20043;-73
2021/11/30 05:58:47;;;;;;;21.25;9.95;;;;;;;-0.23;84.42;97473.69;5084041;28;20361;-73
2021/11/30 06:01:21;;;;;;;18.40;9.90;;;;;;;-0.21;84.02;97474.25;5083584;28;20035;-74
2021/11/30 06:06:16;;;;;;;24.83;12.57;;;;;;;-0.14;83.84;97468.66;5081895;28;20035;-73
2021/11/30 06:08:41;;;;;;;28.23;13.25;;;;;;;-0.09;84.28;97462.53;5083814;28;20058;-73
2021/11/30 06:11:07;;;;;;;36.45;17.40;;;;;;;-0.07;83.66;97471.19;5084195;28;20036;-72
2021/11/30 06:13:32;;;;;;;42.45;21.23;;;;;;;-0.06;84.30;97459.34;5084897;28;20060;-72
2021/11/30 06:15:57;;;;;;;39.90;21.17;;;;;;;-0.08;83.62;97467.66;5084317;28;20430;-70
2021/11/30 06:18:23;;;;;;;29.15;15.77;;;;;;;-0.07;83.66;97458.53;5083765;28;20032;-72
2021/11/30 06:20:49;;;;;;;28.05;15.73;;;;;;;-0.06;83.72;97473.63;5085130;28;20028;-71
2021/11/30 06:23:15;;;;;;;28.77;15.50;;;;;;;-0.08;83.93;97470.38;5082929;28;20043;-72
2021/11/30 06:25:40;;;;;;;28.38;15.90;;;;;;;-0.06;83.81;97476.31;5083827;28;20028;-71
2021/11/30 06:28:06;;;;;;;32.90;17.08;;;;;;;-0.05;83.30;97461.78;5084185;28;20504;-72
2021/11/30 06:30:31;;;;;;;33.60;16.60;;;;;;;-0.01;83.38;97462.09;5084096;28;20142;-72
2021/11/30 06:32:57;;;;;;;34.15;16.75;;;;;;;0.03;83.59;97465.91;5082779;28;20132;-72
2021/11/30 06:35:22;;;;;;;38.00;18.35;;;;;;;0.01;83.59;97468.03;5084559;28;20051;-72
2021/11/30 06:37:48;;;;;;;36.15;18.40;;;;;;;0.01;83.35;97467.22;5084194;28;20027;-72
2021/11/30 06:40:13;;;;;;;35.70;20.20;;;;;;;0.00;83.39;97458.34;5084269;28;20024;-72
2021/11/30 06:42:40;;;;;;;46.88;22.20;;;;;;;-0.01;83.49;97460.22;5084031;28;20488;-72
2021/11/30 06:45:06;;;;;;;43.45;22.10;;;;;;;0.00;83.65;97466.44;5084724;28;20032;-72
2021/11/30 06:47:32;;;;;;;49.22;23.35;;;;;;;-0.04;83.48;97458.03;5083435;28;20496;-71
2021/11/30 06:49:57;;;;;;;46.03;23.40;;;;;;;-0.04;83.44;97468.81;5084249;28;20114;-71
2021/11/30 06:52:23;;;;;;;43.55;21.70;;;;;;;-0.05;83.37;97467.16;5083571;28;20035;-71
2021/11/30 06:54:51;;;;;;;44.13;21.33;;;;;;;-0.07;83.40;97465.81;5083115;28;20024;-72
2021/11/30 06:57:17;;;;;;;39.33;20.45;;;;;;;-0.08;83.53;97456.88;5084035;28;20028;-72
2021/11/30 06:59:43;;;;;;;47.33;23.27;;;;;;;-0.08;82.90;97462.28;5084722;28;20031;-72
2021/11/30 07:02:10;;;;;;;46.40;24.45;;;;;;;-0.07;82.97;97463.09;5084053;28;20044;-72
2021/11/30 07:04:40;;;;;;;41.75;22.25;;;;;;;-0.07;83.41;97453.13;5083705;28;20090;-72
2021/11/30 07:10:21;;;;;;;47.83;25.15;;;;;;;-0.07;83.10;97438.84;5083555;28;20428;-72
2021/11/30 07:12:54;;;;;;;78.32;38.05;;;;;;;-0.08;83.60;97432.63;5082090;28;20027;-72
2021/11/30 07:15:21;;;;;;;74.05;36.85;;;;;;;-0.07;83.54;97444.25;5084124;28;20447;-72
2021/11/30 07:17:47;;;;;;;55.95;28.58;;;;;;;-0.08;83.16;97445.31;5083612;28;20052;-72
2021/11/30 07:20:13;;;;;;;58.80;31.35;;;;;;;-0.08;82.64;97443.41;5084456;28;20067;-72
2021/11/30 07:22:38;;;;;;;63.65;33.05;;;;;;;-0.09;82.91;97439.09;5083357;28;20035;-72
2021/11/30 07:25:04;;;;;;;57.75;27.05;;;;;;;-0.06;83.05;97438.59;5083966;28;20032;-72
2021/11/30 07:27:30;;;;;;;56.13;25.80;;;;;;;-0.03;83.14;97434.59;5083816;28;20071;-72
2021/11/30 07:29:55;;;;;;;44.28;22.85;;;;;;;0.01;82.38;97426.78;5084068;28;20537;-72
2021/11/30 07:32:21;;;;;;;52.13;26.77;;;;;;;0.03;82.31;97422.75;5083040;28;20056;-71
2021/11/30 07:34:46;;;;;;;50.60;30.83;;;;;;;0.06;82.43;97419.56;5082863;28;20150;-72
2021/11/30 07:37:11;;;;;;;45.75;24.58;;;;;;;0.09;82.34;97413.66;5083833;28;20031;-71
2021/11/30 07:39:37;;;;;;;41.80;22.08;;;;;;;0.14;82.77;97410.22;5083853;28;20150;-72
2021/11/30 07:42:02;;;;;;;38.83;21.80;;;;;;;0.19;82.59;97406.75;5084427;28;20028;-72
2021/11/30 07:44:28;;;;;;;36.55;20.33;;;;;;;0.25;82.06;97405.75;5085437;28;20039;-72
2021/11/30 07:46:54;;;;;;;38.83;20.55;;;;;;;0.30;82.67;97408.50;5086444;28;20134;-70
2021/11/30 07:49:21;;;;;;;43.45;21.13;;;;;;;0.34;82.21;97398.00;5086737;28;20020;-72
2021/11/30 07:51:46;;;;;;;45.33;20.90;;;;;;;0.39;82.06;97398.88;5087473;28;20088;-70
2021/11/30 07:54:12;;;;;;;46.08;23.63;;;;;;;0.43;81.63;97399.16;5085334;28;20025;-71
2021/11/30 07:56:37;;;;;;;40.20;19.73;;;;;;;0.43;82.19;97402.66;5067276;28;20074;-72
2021/11/30 07:59:03;;;;;;;38.88;18.63;;;;;;;0.39;81.14;97403.44;5089517;28;20028;-72
2021/11/30 08:01:28;;;;;;;46.92;21.00;;;;;;;0.37;81.46;97403.72;5093250;28;20077;-72
2021/11/30 08:03:53;;;;;;;66.55;26.40;;;;;;;0.37;81.55;97408.28;5092401;28;20463;-71
2021/11/30 08:06:19;;;;;;;50.40;21.02;;;;;;;0.35;80.96;97415.81;5093009;28;20038;-72
2021/11/30 08:08:47;;;;;;;89.00;30.35;;;;;;;0.35;81.61;97405.84;5092710;28;20074;-71
2021/11/30 08:11:12;;;;;;;65.65;24.55;;;;;;;0.38;81.75;97402.63;5087933;28;20036;-71
2021/11/30 08:13:38;;;;;;;92.68;31.05;;;;;;;0.46;81.36;97398.66;5090235;28;20480;-73
2021/11/30 08:16:04;;;;;;;79.57;28.83;;;;;;;0.51;80.78;97401.41;5074559;28;20024;-72
2021/11/30 08:18:29;;;;;;;100.78;33.97;;;;;;;0.57;81.56;97386.06;5092432;28;20028;-72
2021/11/30 08:20:55;;;;;;;67.28;25.42;;;;;;;0.62;80.73;97391.50;5092616;28;20437;-71
2021/11/30 08:23:21;;;;;;;93.60;32.72;;;;;;;0.67;80.54;97388.00;5091441;28;20115;-71
2021/11/30 08:25:46;;;;;;;85.07;27.98;;;;;;;0.73;80.25;97392.38;5092385;28;20099;-72
2021/11/30 08:28:12;;;;;;;55.67;22.30;;;;;;;0.75;80.52;97384.84;5078066;28;20024;-72
2021/11/30 08:30:37;;;;;;;57.97;22.33;;;;;;;0.77;80.08;97381.91;5092488;28;20020;-72
2021/11/30 08:33:03;;;;;;;42.58;18.42;;;;;;;0.79;78.90;97379.75;5091839;28;20047;-72
2021/11/30 08:35:29;;;;;;;48.88;19.48;;;;;;;0.78;78.46;97372.72;5091484;28;20031;-72
2021/11/30 08:37:55;;;;;;;72.55;26.08;;;;;;;0.76;79.14;97372.19;5091800;28;20064;-72
2021/11/30 08:40:20;;;;;;;58.30;21.60;;;;;;;0.75;78.75;97368.66;5092016;28;20464;-72
2021/11/30 08:42:45;;;;;;;45.10;17.35;;;;;;;0.76;78.09;97374.88;5074064;28;20103;-72
2021/11/30 08:45:11;;;;;;;44.92;19.38;;;;;;;0.71;77.55;97373.75;5091407;28;20146;-72
2021/11/30 08:47:37;;;;;;;40.28;18.90;;;;;;;0.69;78.07;97356.19;5074270;28;20024;-73
2021/11/30 08:50:07;;;;;;;60.08;21.70;;;;;;;0.69;78.01;97351.63;5086909;28;20024;-74
2021/11/30 08:52:32;;;;;;;32.58;14.40;;;;;;;0.72;77.61;97355.66;5091289;28;20012;-74
2021/11/30 08:54:58;;;;;;;55.05;18.45;;;;;;;0.76;77.82;97345.97;5090270;28;20027;-74
2021/11/30 08:57:26;;;;;;;54.13;19.30;;;;;;;0.81;77.87;97339.81;5072572;28;20026;-74
2021/11/30 08:59:53;;;;;;;43.03;16.00;;;;;;;0.85;77.14;97343.59;5083981;28;20024;-74
2021/11/30 09:02:20;;;;;;;49.58;18.27;;;;;;;0.88;76.83;97333.13;5087891;28;20017;-73
2021/11/30 09:04:46;;;;;;;35.72;13.40;;;;;;;0.92;76.21;97321.78;5083761;28;20024;-72
2021/11/30 09:07:12;;;;;;;26.42;12.30;;;;;;;0.91;76.10;97307.47;5084727;28;20026;-71
2021/11/30 09:09:37;;;;;;;38.72;16.17;;;;;;;0.91;75.64;97310.16;5088942;28;20563;-73
2021/11/30 09:12:05;;;;;;;43.22;17.05;;;;;;;0.86;75.29;97316.38;5090828;28;20028;-73
2021/11/30 09:14:31;;;;;;;52.47;20.38;;;;;;;0.85;75.45;97319.31;5086066;28;20027;-74
2021/11/30 09:16:56;;;;;;;38.85;16.35;;;;;;;0.82;74.62;97303.63;5089763;28;20033;-72
2021/11/30 09:19:22;;;;;;;47.30;18.77;;;;;;;0.90;75.19;97308.53;5089800;28;20028;-75
2021/11/30 09:21:48;;;;;;;28.35;13.00;;;;;;;0.96;74.60;97299.41;5090137;28;20028;-72
2021/11/30 09:24:15;;;;;;;19.13;9.55;;;;;;;1.04;75.20;97288.09;5089081;28;20021;-73
2021/11/30 09:26:41;;;;;;;47.58;20.83;;;;;;;1.11;74.97;97282.44;5071478;28;20020;-73
2021/11/30 09:29:07;;;;;;;51.35;23.40;;;;;;;1.22;75.08;97279.81;5088775;28;20099;-73
2021/11/30 09:31:33;;;;;;;22.15;11.82;;;;;;;1.30;74.50;97276.59;5089623;28;20101;-73
2021/11/30 09:34:02;;;;;;;18.83;11.00;;;;;;;1.35;74.44;97263.09;5089512;28;20078;-73
2021/11/30 09:36:31;;;;;;;18.48;10.50;;;;;;;1.40;73.09;97271.22;5089623;28;20114;-74
2021/11/30 09:38:57;;;;;;;19.73;11.32;;;;;;;1.43;73.28;97267.97;5071472;28;20464;-74
2021/11/30 09:41:23;;;;;;;17.95;10.93;;;;;;;1.45;73.55;97260.41;5071452;28;20016;-73
2021/11/30 09:43:50;;;;;;;18.48;10.88;;;;;;;1.51;73.32;97249.63;5087395;28;20032;-73
2021/11/30 09:46:16;;;;;;;17.35;10.38;;;;;;;1.52;73.32;97233.16;5090195;28;20035;-74
2021/11/30 09:48:42;;;;;;;19.02;10.43;;;;;;;1.52;72.87;97230.44;5090762;28;20107;-74
2021/11/30 09:51:08;;;;;;;17.05;9.18;;;;;;;1.53;72.58;97218.56;5090836;28;20032;-74
2021/11/30 09:53:34;;;;;;;15.25;9.38;;;;;;;1.53;72.51;97215.03;5085964;28;20069;-73
2021/11/30 09:56:00;;;;;;;16.48;9.63;;;;;;;1.46;72.37;97216.09;5071010;28;20027;-74
2021/11/30 09:58:27;;;;;;;17.27;9.30;;;;;;;1.39;72.90;97214.75;5089727;28;20036;-73
2021/11/30 10:00:55;;;;;;;18.17;10.02;;;;;;;1.29;72.53;97199.34;5089886;28;20552;-73
2021/11/30 10:03:22;;;;;;;17.10;9.50;;;;;;;1.23;72.35;97205.81;5088448;28;20468;-74
2021/11/30 10:05:48;;;;;;;18.05;10.90;;;;;;;1.23;73.33;97200.41;5088431;28;20458;-74
2021/11/30 10:08:44;;;;;;;20.23;11.63;;;;;;;1.26;72.80;97194.47;5088803;28;20029;-73
2021/11/30 10:11:27;;;;;;;19.00;11.10;;;;;;;1.24;73.18;97194.72;5072479;28;20040;-73
2021/11/30 10:14:23;;;;;;;16.70;9.88;;;;;;;1.21;72.99;97189.03;5074510;28;20929;-73
2021/11/30 10:17:19;;;;;;;19.02;10.63;;;;;;;1.21;73.21;97175.53;5089443;28;20384;-73
2021/11/30 10:19:54;;;;;;;23.27;11.20;;;;;;;1.18;72.63;97174.19;5089589;28;20032;-74
2021/11/30 10:22:33;;;;;;;19.55;10.00;;;;;;;1.16;72.07;97147.44;5090853;28;20499;-74
2021/11/30 10:25:34;;;;;;;20.75;10.65;;;;;;;1.14;72.75;97151.50;5089240;28;20039;-74
2021/11/30 10:28:03;;;;;;;18.77;10.02;;;;;;;1.10;72.08;97135.00;5075768;28;20043;-74
2021/11/30 10:30:31;;;;;;;29.15;12.05;;;;;;;1.09;72.68;97129.88;5089291;28;20117;-74
2021/11/30 10:33:02;;;;;;;22.42;11.73;;;;;;;1.08;72.31;97126.34;5089199;28;20072;-73
2021/11/30 10:35:30;;;;;;;18.02;9.68;;;;;;;1.03;72.67;97120.94;5070700;28;20036;-73
2021/11/30 10:38:00;;;;;;;18.80;10.38;;;;;;;1.00;72.24;97126.91;5089230;28;20051;-73
2021/11/30 10:40:28;;;;;;;17.38;9.20;;;;;;;0.94;72.08;97115.28;5088904;28;20035;-73
2021/11/30 10:42:57;;;;;;;23.33;10.38;;;;;;;0.91;72.61;97109.59;5089306;28;20387;-73
2021/11/30 10:45:26;;;;;;;23.85;11.18;;;;;;;0.90;72.40;97103.38;5088841;28;20024;-73
2021/11/30 10:47:52;;;;;;;19.00;10.90;;;;;;;0.85;73.15;97096.09;5087366;28;20036;-72
2021/11/30 10:50:25;;;;;;;25.85;13.23;;;;;;;0.83;72.88;97092.84;5088803;28;20062;-73
2021/11/30 10:52:53;;;;;;;19.95;11.38;;;;;;;0.85;73.27;97070.97;5088638;28;20044;-73
2021/11/30 10:55:19;;;;;;;18.52;9.85;;;;;;;0.87;73.19;97076.91;5088880;28;20150;-74
2021/11/30 10:57:47;;;;;;;29.10;10.75;;;;;;;0.91;72.19;97071.81;5089000;28;20079;-74
2021/11/30 11:00:16;;;;;;;19.48;9.10;;;;;;;0.88;72.01;97065.03;5089320;28;20085;-72
2021/11/30 11:03:00;;;;;;;23.38;11.60;;;;;;;0.86;71.84;97067.19;5089069;28;20024;-71
2021/11/30 11:05:38;;;;;;;39.80;14.13;;;;;;;0.81;71.86;97057.22;5088692;28;20048;-73
2021/11/30 11:08:07;;;;;;;23.33;10.15;;;;;;;0.79;71.47;97045.88;5088025;28;20024;-73
2021/11/30 11:10:35;;;;;;;21.13;9.93;;;;;;;0.79;72.18;97050.47;5088685;28;20099;-73
2021/11/30 11:13:20;;;;;;;43.97;14.45;;;;;;;0.80;72.20;97025.91;5088628;28;20085;-74
2021/11/30 11:15:47;;;;;;;55.47;16.92;;;;;;;0.83;72.37;97006.47;5089281;28;20032;-76
2021/11/30 11:18:24;;;;;;;23.20;11.65;;;;;;;0.86;72.66;97005.13;5091684;28;20081;-72
2021/11/30 11:21:06;;;;;;;27.60;10.15;;;;;;;0.86;72.03;96999.72;5092848;28;20038;-72
2021/11/30 11:23:32;;;;;;;45.22;14.77;;;;;;;0.84;72.13;96991.91;5092020;28;20395;-72
2021/11/30 11:25:58;;;;;;;69.53;19.63;;;;;;;0.82;72.86;96988.66;5092257;28;20024;-74
2021/11/30 11:28:23;;;;;;;25.73;12.13;;;;;;;0.82;72.57;96983.25;5075151;28;20116;-71
2021/11/30 11:30:51;;;;;;;30.45;11.95;;;;;;;0.83;72.56;96973.25;5092399;28;20110;-73
2021/11/30 11:33:17;;;;;;;24.27;11.07;;;;;;;0.83;73.62;96976.78;5091089;28;20044;-73
2021/11/30 11:35:43;;;;;;;28.42;11.40;;;;;;;0.84;73.22;96956.81;5091788;28;20036;-73